Old River-Winfree, Texas
Current Conditions -  °F | °C
As of 3:55 PM on Friday 24 Oct 2014 (Local Time) from K6R3 Reporting Station
Clear Clear  
Wind Chill: 79°   Ceiling: Unl
Heat Index: 80°   Visibility: 7mi
Dew Point: 60°   Wind: 5mph
Humidity: 53%   Direction: 350°N
Pressure: 30.1"   Gusts: NA
Location:  30.0179°N, 94.9156°W
Report Text: K6R3 242055Z AUTO 35004KT 7SM CLR 26/16 A3010 RMK AO2 T02600157
Loading
Personal Weather Stations






























Interactive Weather Map
Tropical Storm Tracking
New forecast layout! Learn more

10-Day Weather Forecast

Advertisements
Track Severe Weather on mobile